Aérodrome :
LOGIN :

S'inscrire | Disclaimer

   EN    FR    IT 

 










Légende :    VFR   VFR Marginal   IFR   IFR Intensif   IFR Très Intensif
Visi : 
Plafond : 
>= 8 km
>= 3000ft
5 à 8 km
1000 à 3000 ft
1500m à 5 km
500 à 1000 ft
800 à 1500m
200 à 500 ft
< 800m
< 200 ft
Symboles :   Orages  Brouillard  Fortes neiges  Fortes précipitations  Vent > 20 kt
SIGMETs :   Divers  Orages  Givrage  Turbulence  Onde Orograph.  Cendres Volcan.






- Altitude de l'aérodrome : 3381 ft
- Code IATA : KYA


LTAN - Konya AB

DERNIER METAR :
  • 291250Z 08007KT 050V110 7000 -RA FEW013 BKN030 BKN090 05/03 Q1003 RERA NOSIG

METARs EXPIRÉS :
  • 291230Z 09006KT 060V120 7000 -RA FEW015 BKN035 BKN090 04/03 Q1003 RERA NOSIG RMK RWY19 15008KT
  • 291150Z 16008KT 130V190 7000 RA FEW010 BKN030 BKN090 05/04 Q1002 BECMG TL1230 NSW
  • 291119Z 19008KT 8000 RA BKN030 BKN090 05/03 Q1002 BECMG TL1200 NSW RMK RWY19 20010KT
  • 291050Z 08005KT 050V150 9999 -RA BKN037 BKN090 09/01 Q1002 RERA NOSIG

TAF TAF LTAN
Valide du 29 à 12h jusqu'au 29 à 21h UTC


291040Z 2912/2921 05009KT 9999 -RA BKN030 BKN090
BECMG 2913/2915 34015KT



MET'MAP, la Météo Aéronautique d'un coup d'oeil ! - Copyright ORBIFLY Décembre 2007 - Disclaimer

ORBIFLY MET'MAP TEAM :

Programmation & Développement : Alexandra Zaïnal
Sur une idée originale de : Baudouin d'Aumeries
Assistance à la programmation : Marc-Olivier Méhu
Soutien technique & logistique : Manuel Goepfert

Contact : metmap@orbifly.com




SOURCES & CREDITS :

   NOAA